createdAt,value
2022-10-18T00:00:48.526Z,25.40
2022-10-18T00:01:50.984Z,26.50
2022-10-18T00:02:53.170Z,24.88
2022-10-18T00:03:55.362Z,26.90
2022-10-18T00:04:57.507Z,25.58
2022-10-18T00:06:00.137Z,25.67
2022-10-18T00:07:02.439Z,25.67
2022-10-18T00:08:04.745Z,25.90
2022-10-18T00:09:07.039Z,25.77
2022-10-18T00:10:10.109Z,25.30
2022-10-18T00:11:12.414Z,25.35
2022-10-18T00:12:14.725Z,24.45
2022-10-18T00:13:17.442Z,26.63
2022-10-18T00:14:19.783Z,27.10
2022-10-18T00:15:21.938Z,26.27
2022-10-18T00:16:24.105Z,25.52
2022-10-18T00:17:29.447Z,24.95
2022-10-18T00:18:32.389Z,25.95
2022-10-18T00:19:34.669Z,25.08
2022-10-18T00:20:36.881Z,25.48
2022-10-18T00:21:39.169Z,27.85
2022-10-18T00:22:42.233Z,26.05
2022-10-18T00:23:45.836Z,26.80
2022-10-18T00:24:48.259Z,27.05
2022-10-18T00:26:02.183Z,26.77
2022-10-18T00:27:04.564Z,26.50
2022-10-18T00:28:06.780Z,25.30
2022-10-18T00:29:15.004Z,28.42
2022-10-18T00:30:17.179Z,26.63
2022-10-18T00:31:27.825Z,26.20
2022-10-18T00:32:30.203Z,26.20
2022-10-18T00:33:32.702Z,27.10
2022-10-18T00:34:35.041Z,26.67
2022-10-18T00:35:37.173Z,27.05
2022-10-18T00:36:39.688Z,26.95
2022-10-18T00:37:41.830Z,25.80
2022-10-18T00:38:44.999Z,26.55
2022-10-18T00:39:47.438Z,26.33
2022-10-18T00:40:49.599Z,26.40
2022-10-18T00:41:52.361Z,26.92
2022-10-18T00:42:54.499Z,26.05
2022-10-18T00:44:06.982Z,28.30
2022-10-18T00:45:21.700Z,27.05
2022-10-18T00:46:25.477Z,29.73
2022-10-18T00:47:40.156Z,26.63
2022-10-18T00:48:42.434Z,26.13
2022-10-18T00:49:52.792Z,28.35
2022-10-18T00:50:55.214Z,27.70
2022-10-18T00:52:05.083Z,27.98
2022-10-18T00:53:12.969Z,27.13
2022-10-18T00:54:17.079Z,26.50
2022-10-18T00:55:20.704Z,27.10
2022-10-18T00:56:23.133Z,27.40
2022-10-18T00:57:25.960Z,27.45
2022-10-18T00:58:29.129Z,27.85
2022-10-18T00:59:31.393Z,27.13
2022-10-18T01:00:35.040Z,26.17
2022-10-18T01:01:37.270Z,25.05
2022-10-18T01:02:42.014Z,27.38
2022-10-18T01:03:44.886Z,27.23
2022-10-18T01:04:47.967Z,26.23
2022-10-18T01:05:50.371Z,24.85
2022-10-18T01:07:21.383Z,25.27
2022-10-18T01:08:28.783Z,25.63
2022-10-18T01:09:36.659Z,26.27
2022-10-18T01:10:45.967Z,26.20
2022-10-18T01:12:23.449Z,26.38
2022-10-18T01:14:11.789Z,26.88
2022-10-18T01:15:29.701Z,25.45
2022-10-18T01:16:42.532Z,26.25
2022-10-18T01:18:21.010Z,26.52
2022-10-18T01:19:47.973Z,27.85
2022-10-18T01:21:13.184Z,25.17
2022-10-18T01:23:00.576Z,25.40
2022-10-18T01:24:19.184Z,25.88
2022-10-18T01:25:30.089Z,26.58
2022-10-18T01:26:38.568Z,25.92
2022-10-18T01:27:46.928Z,26.92
2022-10-18T01:29:24.680Z,26.58
2022-10-18T01:30:38.129Z,25.33
2022-10-18T01:31:46.901Z,25.42
2022-10-18T01:32:52.996Z,25.73
2022-10-18T01:34:00.002Z,28.17
2022-10-18T01:35:08.842Z,25.33
2022-10-18T01:36:28.687Z,25.65
2022-10-18T01:37:33.086Z,26.52
2022-10-18T01:38:38.253Z,26.42
2022-10-18T01:39:43.493Z,26.35
2022-10-18T01:40:50.379Z,26.95
2022-10-18T01:41:54.606Z,26.98
2022-10-18T01:42:56.985Z,26.52
2022-10-18T01:44:02.088Z,27.70
2022-10-18T01:45:04.867Z,26.77
2022-10-18T01:46:09.330Z,26.17
2022-10-18T01:47:13.819Z,26.92
2022-10-18T01:48:16.669Z,27.15
2022-10-18T01:49:19.175Z,26.98
2022-10-18T01:50:35.006Z,28.15
2022-10-18T01:51:37.432Z,28.77
2022-10-18T01:52:52.138Z,27.60
2022-10-18T01:53:54.739Z,26.52
2022-10-18T01:54:59.473Z,26.65
2022-10-18T01:56:10.521Z,26.83
2022-10-18T01:57:22.944Z,25.80
2022-10-18T01:58:37.283Z,27.90
2022-10-18T02:00:04.025Z,26.90
2022-10-18T02:01:31.345Z,26.38
2022-10-18T02:02:51.186Z,27.30
2022-10-18T02:03:58.086Z,26.42
2022-10-18T02:05:35.169Z,26.23
2022-10-18T02:06:45.104Z,26.67
2022-10-18T02:08:23.259Z,25.98
2022-10-18T02:09:36.228Z,25.42
2022-10-18T02:10:46.570Z,25.65
2022-10-18T02:11:54.030Z,25.55
2022-10-18T02:12:57.566Z,25.15
2022-10-18T02:14:12.982Z,25.63
2022-10-18T02:15:19.960Z,24.42
2022-10-18T02:16:35.776Z,24.95
2022-10-18T02:17:40.292Z,24.55
2022-10-18T02:18:49.367Z,25.17
2022-10-18T02:19:54.842Z,26.23
2022-10-18T02:20:59.031Z,25.23
2022-10-18T02:22:02.140Z,25.75
2022-10-18T02:23:07.439Z,24.80
2022-10-18T02:24:12.918Z,25.20
2022-10-18T02:25:21.272Z,24.10
2022-10-18T02:26:23.958Z,26.33
2022-10-18T02:27:26.233Z,26.48
2022-10-18T02:28:28.654Z,24.98
2022-10-18T02:29:32.059Z,26.85
2022-10-18T02:30:52.729Z,26.33
2022-10-18T02:32:09.434Z,24.92
2022-10-18T02:33:22.146Z,24.88
2022-10-18T02:34:35.248Z,25.33
2022-10-18T02:35:45.026Z,24.25
2022-10-18T02:36:58.263Z,24.07
2022-10-18T02:38:01.758Z,24.48
2022-10-18T02:39:11.605Z,25.77
2022-10-18T02:40:15.250Z,24.30
2022-10-18T02:41:27.979Z,24.58
2022-10-18T02:42:35.875Z,23.55
2022-10-18T02:43:38.211Z,24.92
2022-10-18T02:44:40.670Z,25.38
2022-10-18T02:45:43.027Z,24.42
2022-10-18T02:46:46.716Z,23.10
2022-10-18T02:47:49.076Z,24.38
2022-10-18T02:48:51.358Z,24.25
2022-10-18T02:49:53.683Z,26.05
2022-10-18T02:50:56.002Z,24.90
2022-10-18T02:51:58.447Z,23.58
2022-10-18T02:53:00.775Z,24.08
2022-10-18T02:54:03.607Z,24.40
2022-10-18T02:55:09.417Z,24.20
2022-10-18T02:56:11.687Z,23.70
2022-10-18T02:57:14.032Z,23.65
2022-10-18T02:58:16.297Z,24.20
2022-10-18T02:59:18.648Z,23.63
2022-10-18T03:00:20.989Z,24.70
2022-10-18T03:01:24.428Z,23.95
2022-10-18T03:02:27.069Z,24.20
2022-10-18T03:03:29.261Z,23.75
2022-10-18T03:04:31.615Z,23.13
2022-10-18T03:05:33.816Z,23.92
2022-10-18T03:06:36.293Z,23.50
2022-10-18T03:07:38.617Z,25.35
2022-10-18T03:08:40.838Z,24.38
2022-10-18T03:09:43.152Z,24.40
2022-10-18T03:10:46.315Z,24.35
2022-10-18T03:11:48.660Z,23.77
2022-10-18T03:12:50.834Z,24.08
2022-10-18T03:13:53.165Z,25.27
2022-10-18T03:14:55.320Z,24.70
2022-10-18T03:15:57.639Z,23.75
2022-10-18T03:16:59.942Z,23.55
2022-10-18T03:18:02.104Z,24.15
2022-10-18T03:19:04.439Z,23.77
2022-10-18T03:20:07.162Z,23.77
2022-10-18T03:21:10.433Z,24.33
2022-10-18T03:22:12.724Z,24.08
2022-10-18T03:23:14.867Z,23.50
2022-10-18T03:24:17.236Z,22.45
2022-10-18T03:25:19.513Z,23.15
2022-10-18T03:26:21.817Z,24.00
2022-10-18T03:27:24.332Z,23.98
2022-10-18T03:28:26.783Z,23.10
2022-10-18T03:29:29.009Z,24.70
2022-10-18T03:30:31.270Z,23.75
2022-10-18T03:31:33.939Z,24.20
2022-10-18T03:32:36.436Z,23.38
2022-10-18T03:33:38.856Z,21.98
2022-10-18T03:34:41.030Z,23.55
2022-10-18T03:35:43.400Z,23.85
2022-10-18T03:36:45.590Z,24.25
2022-10-18T03:37:48.207Z,23.75
2022-10-18T03:38:50.437Z,23.40
2022-10-18T03:39:52.634Z,23.23
2022-10-18T03:40:54.901Z,23.15
2022-10-18T03:41:57.143Z,23.67
2022-10-18T03:42:59.631Z,22.73
2022-10-18T03:44:01.868Z,23.23
2022-10-18T03:45:04.915Z,24.10
2022-10-18T03:46:07.281Z,23.85
2022-10-18T03:47:09.466Z,24.05
2022-10-18T03:48:11.909Z,23.25
2022-10-18T03:49:14.262Z,23.17
2022-10-18T03:50:16.509Z,23.05
2022-10-18T03:51:18.706Z,22.92
2022-10-18T03:52:21.031Z,23.35
2022-10-18T03:53:23.225Z,22.45
2022-10-18T03:54:25.530Z,22.83
2022-10-18T03:55:27.881Z,22.27
2022-10-18T03:56:30.073Z,22.13
2022-10-18T03:57:32.410Z,22.63
2022-10-18T03:59:41.677Z,22.45
2022-10-18T04:00:43.998Z,22.98
2022-10-18T04:01:46.176Z,22.65
2022-10-18T04:02:52.017Z,21.88
2022-10-18T04:03:57.200Z,21.98
2022-10-18T04:04:59.401Z,22.60
2022-10-18T04:06:03.462Z,22.88
2022-10-18T04:07:05.617Z,22.08
2022-10-18T04:08:08.199Z,21.70
2022-10-18T04:09:10.506Z,21.88
2022-10-18T04:10:12.925Z,23.52
2022-10-18T04:11:15.307Z,22.63
2022-10-18T04:12:17.599Z,21.73
2022-10-18T04:13:19.933Z,22.60
2022-10-18T04:14:22.191Z,22.83
2022-10-18T04:15:24.450Z,21.40
2022-10-18T04:16:26.914Z,23.25
2022-10-18T04:17:29.392Z,22.83
2022-10-18T04:18:32.232Z,22.67
2022-10-18T04:19:34.458Z,23.08
2022-10-18T04:20:36.817Z,21.70
2022-10-18T04:21:39.148Z,23.27
2022-10-18T04:22:41.464Z,22.50
2022-10-18T04:23:44.001Z,22.42
2022-10-18T04:24:46.157Z,22.13
2022-10-18T04:25:48.328Z,22.42
2022-10-18T04:26:51.454Z,23.10
2022-10-18T04:27:53.781Z,22.55
2022-10-18T04:28:55.979Z,21.33
2022-10-18T04:29:58.323Z,22.40
2022-10-18T04:31:01.120Z,21.95
2022-10-18T04:32:03.545Z,22.13
2022-10-18T04:33:05.963Z,22.25
2022-10-18T04:34:09.008Z,21.60
2022-10-18T04:35:11.702Z,21.48
2022-10-18T04:36:13.871Z,22.73
2022-10-18T04:37:16.079Z,23.42
2022-10-18T04:38:19.923Z,23.50
2022-10-18T04:39:22.104Z,23.38
2022-10-18T04:40:24.435Z,22.40
2022-10-18T04:41:26.582Z,21.45
2022-10-18T04:42:28.736Z,22.20
2022-10-18T04:43:31.334Z,22.58
2022-10-18T04:44:34.423Z,22.02
2022-10-18T04:45:36.673Z,22.25
2022-10-18T04:46:38.820Z,21.90
2022-10-18T04:47:41.140Z,22.73
2022-10-18T04:48:43.556Z,21.88
2022-10-18T04:49:45.711Z,23.10
2022-10-18T04:50:49.783Z,22.77
2022-10-18T04:51:51.965Z,33.00
2022-10-18T04:52:54.270Z,22.40
2022-10-18T04:53:56.755Z,20.90
2022-10-18T04:54:58.952Z,21.38
2022-10-18T04:56:01.259Z,20.83
2022-10-18T04:57:03.924Z,20.17
2022-10-18T04:58:06.082Z,21.70
2022-10-18T04:59:08.649Z,21.73
2022-10-18T05:00:11.322Z,21.77
2022-10-18T05:01:13.618Z,21.83
2022-10-18T05:02:15.808Z,21.67
2022-10-18T05:03:18.268Z,22.73
2022-10-18T05:04:20.587Z,20.90
2022-10-18T05:05:23.198Z,20.52
2022-10-18T05:06:27.214Z,20.67
2022-10-18T05:07:29.391Z,21.13
2022-10-18T05:08:33.748Z,21.20
2022-10-18T05:09:35.971Z,20.38
2022-10-18T05:10:38.428Z,20.50
2022-10-18T05:11:40.634Z,20.02
2022-10-18T05:12:43.822Z,21.02
2022-10-18T05:13:48.622Z,20.45
2022-10-18T05:14:53.315Z,20.50
2022-10-18T05:15:55.918Z,21.42
2022-10-18T05:16:58.354Z,20.73
2022-10-18T05:18:00.541Z,21.27
2022-10-18T05:19:05.251Z,21.92
2022-10-18T05:20:07.775Z,22.38
2022-10-18T05:21:10.707Z,21.63
2022-10-18T05:22:12.877Z,20.55
2022-10-18T05:23:15.087Z,20.23
2022-10-18T05:24:17.555Z,21.17
2022-10-18T05:25:19.728Z,22.23
2022-10-18T05:26:22.029Z,20.52
2022-10-18T05:27:24.189Z,21.88
2022-10-18T05:28:42.153Z,23.77
2022-10-18T05:29:44.622Z,20.98
2022-10-18T05:30:46.825Z,21.42
2022-10-18T05:31:49.621Z,20.80
2022-10-18T05:32:51.794Z,20.40
2022-10-18T05:33:54.101Z,21.10
2022-10-18T05:34:56.626Z,20.90
2022-10-18T05:35:59.530Z,21.85
2022-10-18T05:37:01.704Z,22.52
2022-10-18T05:38:06.180Z,21.45
2022-10-18T05:39:08.365Z,21.90
2022-10-18T05:40:11.259Z,22.73
2022-10-18T05:41:13.880Z,22.48
2022-10-18T05:42:16.160Z,21.58
2022-10-18T05:43:18.403Z,23.30
2022-10-18T05:44:21.662Z,22.92
2022-10-18T05:45:23.836Z,21.88
2022-10-18T05:46:26.110Z,21.40
2022-10-18T05:47:28.333Z,19.58
2022-10-18T05:48:31.165Z,18.48
2022-10-18T05:49:33.504Z,21.33
2022-10-18T05:50:38.141Z,20.17
2022-10-18T05:51:42.764Z,22.42
2022-10-18T05:52:44.994Z,22.10
2022-10-18T05:53:47.587Z,20.67
2022-10-18T05:54:49.917Z,21.73
2022-10-18T05:55:52.246Z,20.73
2022-10-18T05:56:54.457Z,22.15
2022-10-18T05:57:56.906Z,22.92
2022-10-18T05:58:59.060Z,22.60
2022-10-18T06:00:01.528Z,22.58
2022-10-18T06:01:13.912Z,21.23
2022-10-18T06:02:16.343Z,22.63
2022-10-18T06:03:18.730Z,21.55
2022-10-18T06:04:21.250Z,21.75
2022-10-18T06:05:23.583Z,21.13
2022-10-18T06:06:25.783Z,20.85
2022-10-18T06:07:27.951Z,21.77
2022-10-18T06:08:30.335Z,22.25
2022-10-18T06:09:32.515Z,19.83
2022-10-18T06:10:34.838Z,20.08
2022-10-18T06:11:37.349Z,20.75
2022-10-18T06:12:39.627Z,21.70
2022-10-18T06:13:43.607Z,22.60
2022-10-18T06:14:45.795Z,21.70
2022-10-18T06:15:48.136Z,22.70
2022-10-18T06:16:50.577Z,21.85
2022-10-18T06:17:52.747Z,21.92
2022-10-18T06:18:57.318Z,21.80
2022-10-18T06:19:59.527Z,22.35
2022-10-18T06:21:02.179Z,22.48
2022-10-18T06:22:04.857Z,21.80
2022-10-18T06:23:07.019Z,22.45
2022-10-18T06:24:09.233Z,21.77
2022-10-18T06:25:11.715Z,21.98
2022-10-18T06:26:13.867Z,22.02
2022-10-18T06:27:16.272Z,22.40
2022-10-18T06:28:18.463Z,21.25
2022-10-18T06:29:20.603Z,20.98
2022-10-18T06:30:23.088Z,21.27
2022-10-18T06:31:25.357Z,21.75
2022-10-18T06:32:27.561Z,21.52
2022-10-18T06:33:31.406Z,22.48
2022-10-18T06:34:34.087Z,21.20
2022-10-18T06:35:36.568Z,21.98
2022-10-18T06:36:38.745Z,21.40
2022-10-18T06:38:48.745Z,21.60
2022-10-18T06:39:50.890Z,20.63
2022-10-18T06:40:54.294Z,22.13
2022-10-18T06:41:56.471Z,23.15
2022-10-18T06:43:19.587Z,22.23
2022-10-18T06:44:23.198Z,22.17
2022-10-18T06:45:25.628Z,21.63
2022-10-18T06:46:27.834Z,22.25
2022-10-18T06:47:30.046Z,23.75
2022-10-18T06:48:32.935Z,21.88
2022-10-18T06:49:35.224Z,21.13
2022-10-18T06:50:37.897Z,23.52
2022-10-18T06:51:40.777Z,21.77
2022-10-18T06:52:43.519Z,22.20
2022-10-18T06:53:59.060Z,22.27
2022-10-18T06:55:09.201Z,22.35
2022-10-18T06:56:13.513Z,21.98
2022-10-18T06:57:15.668Z,21.00
2022-10-18T06:58:18.082Z,22.38
2022-10-18T06:59:20.207Z,23.45
2022-10-18T07:00:22.547Z,22.65
2022-10-18T07:01:24.750Z,22.00
2022-10-18T07:02:26.982Z,23.13
2022-10-18T07:03:29.451Z,23.02
2022-10-18T07:04:31.654Z,22.20
2022-10-18T07:06:41.156Z,22.52
2022-10-18T07:07:43.389Z,23.02
2022-10-18T07:08:47.322Z,23.63
2022-10-18T07:09:49.476Z,23.13
2022-10-18T07:10:53.369Z,23.65
2022-10-18T07:11:55.492Z,23.33
2022-10-18T07:13:13.538Z,23.10
2022-10-18T07:14:19.931Z,21.63
2022-10-18T07:15:24.045Z,23.35
2022-10-18T07:16:26.623Z,23.05
2022-10-18T07:17:29.050Z,21.98
2022-10-18T07:18:33.141Z,22.58
2022-10-18T07:19:35.496Z,23.13
2022-10-18T07:20:37.819Z,23.05
2022-10-18T07:21:40.100Z,23.38
2022-10-18T07:22:42.272Z,22.55
2022-10-18T07:23:48.481Z,21.88
2022-10-18T07:24:50.991Z,22.33
2022-10-18T07:25:53.155Z,23.92
2022-10-18T07:26:55.509Z,24.20
2022-10-18T07:27:57.734Z,22.10
2022-10-18T07:29:08.752Z,22.92
2022-10-18T07:30:11.559Z,21.58
2022-10-18T07:31:14.211Z,22.80
2022-10-18T07:32:16.554Z,24.05
2022-10-18T07:33:20.695Z,21.85
2022-10-18T07:34:22.887Z,23.10
2022-10-18T07:35:25.053Z,23.05
2022-10-18T07:36:27.284Z,22.42
2022-10-18T07:37:30.533Z,24.00
2022-10-18T07:38:32.953Z,23.48
2022-10-18T07:39:35.100Z,21.92
2022-10-18T07:40:37.235Z,24.00
2022-10-18T07:41:39.844Z,23.83
2022-10-18T07:42:42.618Z,23.45
2022-10-18T07:43:48.836Z,23.67
2022-10-18T07:44:51.154Z,21.13
2022-10-18T07:45:54.841Z,22.73
2022-10-18T07:46:57.158Z,22.85
2022-10-18T07:47:59.543Z,22.40
2022-10-18T07:49:01.756Z,23.15
2022-10-18T07:50:03.947Z,23.27
2022-10-18T07:51:06.725Z,22.50
2022-10-18T07:52:09.165Z,23.25
2022-10-18T07:53:11.304Z,22.17
2022-10-18T07:54:13.528Z,22.27
2022-10-18T07:55:15.831Z,21.98
2022-10-18T07:56:21.275Z,22.35
2022-10-18T07:57:24.002Z,24.23
2022-10-18T07:58:26.538Z,23.70
2022-10-18T07:59:28.681Z,22.92
2022-10-18T08:00:31.081Z,23.85
2022-10-18T08:01:34.367Z,24.02
2022-10-18T08:02:36.815Z,23.83
2022-10-18T08:03:39.110Z,23.30
2022-10-18T08:04:41.616Z,23.85
2022-10-18T08:05:43.933Z,24.52
2022-10-18T08:06:46.252Z,23.08
2022-10-18T08:07:48.571Z,25.42
2022-10-18T08:08:50.784Z,24.85
2022-10-18T08:09:52.994Z,25.38
2022-10-18T08:10:55.828Z,24.80
2022-10-18T08:11:58.021Z,23.65
2022-10-18T08:13:00.434Z,24.08
2022-10-18T08:14:02.634Z,24.38
2022-10-18T08:15:05.233Z,22.60
2022-10-18T08:16:10.207Z,23.17
2022-10-18T08:17:12.507Z,23.73
2022-10-18T08:18:14.655Z,23.05
2022-10-18T08:19:16.967Z,25.75
2022-10-18T08:20:30.404Z,23.35
2022-10-18T08:21:33.501Z,23.88
2022-10-18T08:22:35.746Z,22.48
2022-10-18T08:23:38.656Z,24.63
2022-10-18T08:24:40.807Z,22.95
2022-10-18T08:25:42.974Z,23.75
2022-10-18T08:26:45.108Z,24.25
2022-10-18T08:27:47.550Z,23.35
2022-10-18T08:28:58.345Z,23.63
2022-10-18T08:30:12.048Z,25.13
2022-10-18T08:31:19.775Z,23.35
2022-10-18T08:32:21.962Z,23.67
2022-10-18T08:33:24.188Z,23.30
2022-10-18T08:34:26.437Z,24.10
2022-10-18T08:35:28.601Z,23.52
2022-10-18T08:36:30.762Z,23.55
2022-10-18T08:37:33.441Z,23.27
2022-10-18T08:38:37.846Z,25.42
2022-10-18T08:39:39.991Z,23.83
2022-10-18T08:40:44.499Z,23.13
2022-10-18T08:42:04.039Z,23.75
2022-10-18T08:43:21.461Z,23.30
2022-10-18T08:44:30.237Z,22.20
2022-10-18T08:45:42.358Z,23.08
2022-10-18T08:46:51.137Z,22.88
2022-10-18T08:47:57.330Z,26.33
2022-10-18T08:49:01.848Z,23.55
2022-10-18T08:50:14.791Z,25.02
2022-10-18T08:51:42.455Z,25.52
2022-10-18T08:53:17.783Z,24.30
2022-10-18T08:54:33.663Z,25.58
2022-10-18T08:55:42.213Z,33.58
2022-10-18T08:56:54.340Z,25.15
2022-10-18T08:57:58.240Z,23.08
2022-10-18T08:59:04.180Z,23.45
2022-10-18T09:00:26.082Z,23.48
2022-10-18T09:01:28.364Z,23.75
2022-10-18T09:02:52.879Z,26.63
2022-10-18T09:04:01.394Z,24.40
2022-10-18T09:05:24.932Z,23.05
2022-10-18T09:06:44.658Z,23.80
2022-10-18T09:08:11.508Z,23.73
2022-10-18T09:09:36.928Z,22.02
2022-10-18T09:10:53.537Z,21.88
2022-10-18T09:12:21.033Z,22.15
2022-10-18T09:13:42.165Z,22.33
2022-10-18T09:15:09.481Z,22.98
2022-10-18T09:16:16.850Z,22.83
2022-10-18T09:17:35.350Z,24.00
2022-10-18T09:19:02.605Z,27.05
2022-10-18T09:20:25.268Z,25.77
2022-10-18T09:21:38.295Z,24.83
2022-10-18T09:23:12.506Z,25.42
2022-10-18T09:24:26.497Z,23.52
2022-10-18T09:25:47.097Z,23.20
2022-10-18T09:26:54.798Z,23.77
2022-10-18T09:28:14.227Z,25.42
2022-10-18T09:29:46.618Z,24.25
2022-10-18T09:30:59.802Z,24.35
2022-10-18T09:32:44.385Z,24.98
2022-10-18T09:34:05.386Z,25.63
2022-10-18T09:37:43.268Z,24.88
2022-10-18T09:38:49.255Z,27.30
2022-10-18T09:40:00.010Z,27.90
2022-10-18T09:41:13.461Z,27.70
2022-10-18T09:42:27.014Z,27.17
2022-10-18T09:43:58.847Z,26.98
2022-10-18T09:45:08.098Z,30.10
2022-10-18T09:46:11.339Z,27.58
2022-10-18T09:47:21.504Z,28.80
2022-10-18T09:48:29.577Z,28.35
2022-10-18T09:49:42.187Z,28.38
2022-10-18T09:50:50.937Z,28.08
2022-10-18T09:51:54.310Z,27.90
2022-10-18T09:53:20.992Z,27.77
2022-10-18T09:54:42.045Z,25.85
2022-10-18T09:57:15.294Z,25.67
2022-10-18T09:58:20.559Z,24.38
2022-10-18T09:59:40.545Z,24.58
2022-10-18T10:00:48.399Z,24.35
2022-10-18T10:01:50.616Z,24.77
2022-10-18T10:02:52.976Z,24.02
2022-10-18T10:03:55.272Z,25.02
2022-10-18T10:04:57.681Z,22.27
2022-10-18T10:06:11.839Z,23.88
2022-10-18T10:07:29.891Z,23.90
2022-10-18T10:10:01.684Z,21.08
2022-10-18T10:11:04.048Z,20.98
2022-10-18T10:12:24.780Z,19.48
2022-10-18T10:13:27.975Z,19.65
2022-10-18T10:14:30.783Z,18.67
2022-10-18T10:15:37.173Z,17.65
2022-10-18T10:16:51.506Z,18.10
2022-10-18T10:19:03.624Z,16.98
2022-10-18T10:20:20.248Z,15.35
2022-10-18T10:21:23.389Z,14.10
2022-10-18T10:22:36.000Z,14.60
2022-10-18T10:23:54.789Z,13.80
2022-10-18T10:24:57.023Z,13.88
2022-10-18T10:26:04.981Z,12.20
2022-10-18T10:27:17.106Z,14.88
2022-10-18T10:28:26.528Z,10.52
2022-10-18T10:29:46.930Z,10.88
2022-10-18T10:30:49.332Z,10.80
2022-10-18T10:32:04.262Z,10.73
2022-10-18T10:33:27.003Z,12.52
2022-10-18T10:34:29.875Z,10.00
2022-10-18T10:35:54.278Z,9.80
2022-10-18T10:36:56.733Z,8.95
2022-10-18T10:37:59.191Z,8.10
2022-10-18T10:39:12.110Z,8.70
2022-10-18T10:40:20.276Z,7.40
2022-10-18T10:41:24.154Z,6.38
2022-10-18T10:42:26.505Z,6.40
2022-10-18T10:43:40.015Z,6.60
2022-10-18T10:44:55.061Z,7.13
2022-10-18T10:45:59.662Z,7.15
2022-10-18T10:47:02.243Z,5.82
2022-10-18T10:48:16.761Z,5.22
2022-10-18T10:49:40.266Z,5.22
2022-10-18T10:50:55.288Z,5.38
2022-10-18T10:52:09.246Z,5.57
2022-10-18T10:53:52.631Z,5.85
2022-10-18T10:55:05.683Z,5.30
2022-10-18T10:56:28.796Z,4.75
2022-10-18T10:57:31.868Z,5.55
2022-10-18T10:58:37.466Z,5.47
2022-10-18T10:59:56.229Z,5.20
2022-10-18T11:00:58.497Z,5.65
2022-10-18T11:02:19.090Z,5.38
2022-10-18T11:03:29.095Z,5.65
2022-10-18T11:04:32.415Z,5.50
2022-10-18T11:05:43.853Z,5.90
2022-10-18T11:06:52.000Z,5.75
2022-10-18T11:08:02.022Z,4.63
2022-10-18T11:09:15.686Z,4.90
2022-10-18T11:10:22.895Z,5.90
2022-10-18T11:11:33.290Z,12.65
2022-10-18T11:12:47.340Z,5.38
2022-10-18T11:14:07.224Z,5.38
2022-10-18T11:15:26.245Z,5.25
2022-10-18T11:16:42.637Z,5.35
2022-10-18T11:18:08.964Z,5.60
2022-10-18T11:19:41.064Z,6.60
2022-10-18T11:21:08.029Z,5.95
2022-10-18T11:22:17.193Z,4.90
2022-10-18T11:23:19.673Z,4.70
2022-10-18T11:24:23.285Z,5.35
2022-10-18T11:25:53.317Z,4.88
2022-10-18T11:27:16.767Z,4.97
2022-10-18T11:28:28.716Z,5.32
2022-10-18T11:30:08.082Z,5.90
2022-10-18T11:31:35.812Z,6.22
2022-10-18T11:33:12.078Z,6.10
2022-10-18T11:34:32.378Z,5.38
2022-10-18T11:35:49.830Z,6.78
2022-10-18T11:37:02.297Z,5.90
2022-10-18T11:38:42.375Z,5.93
2022-10-18T11:40:10.505Z,6.22
2022-10-18T11:41:30.891Z,6.45
2022-10-18T11:42:35.665Z,6.10
2022-10-18T11:44:01.599Z,6.20
2022-10-18T11:46:53.781Z,6.57
2022-10-18T11:48:04.710Z,7.10
2022-10-18T11:49:30.155Z,6.25
2022-10-18T11:50:50.981Z,6.78
2022-10-18T11:52:07.433Z,6.43
2022-10-18T11:53:22.883Z,5.15
2022-10-18T11:54:46.097Z,5.78
2022-10-18T11:55:56.810Z,5.20
2022-10-18T11:57:26.516Z,5.03
2022-10-18T11:58:31.491Z,6.47
2022-10-18T12:00:11.780Z,5.85
2022-10-18T12:01:28.499Z,4.75
2022-10-18T12:02:49.196Z,4.20
2022-10-18T12:04:49.037Z,5.28
2022-10-18T12:06:14.891Z,3.90
2022-10-18T12:07:26.791Z,4.30
2022-10-18T12:08:43.862Z,4.70
2022-10-18T12:11:06.026Z,5.25
2022-10-18T12:12:23.050Z,5.05
2022-10-18T12:13:44.080Z,4.25
2022-10-18T12:15:57.774Z,5.38
2022-10-18T12:17:39.816Z,8.32
2022-10-18T12:18:30.688Z,11.35
2022-10-18T12:19:35.510Z,6.68
2022-10-18T12:20:47.017Z,4.75
2022-10-18T12:21:49.735Z,6.78
2022-10-18T12:23:01.891Z,6.47
2022-10-18T12:24:16.046Z,4.72
2022-10-18T12:25:19.102Z,4.80
2022-10-18T12:26:22.677Z,5.80
2022-10-18T12:27:53.273Z,3.42
2022-10-18T12:29:08.506Z,2.72
2022-10-18T12:30:58.639Z,2.60
2022-10-18T12:32:11.263Z,2.42
2022-10-18T12:33:33.723Z,2.80
2022-10-18T12:34:53.882Z,2.67
2022-10-18T12:36:20.074Z,3.92
2022-10-18T12:37:31.553Z,5.45
2022-10-18T12:38:37.852Z,3.67
2022-10-18T12:40:11.472Z,5.72
2022-10-18T12:41:22.931Z,2.63
2022-10-18T12:42:31.178Z,2.55
2022-10-18T12:43:37.991Z,48.10
2022-10-18T12:44:40.195Z,2.53
2022-10-18T12:45:52.796Z,2.60
2022-10-18T12:46:58.161Z,2.60
2022-10-18T12:48:07.538Z,3.60
2022-10-18T12:49:12.246Z,4.22
2022-10-18T12:50:23.299Z,8.05
2022-10-18T12:51:25.535Z,3.08
2022-10-18T12:52:31.938Z,2.60
2022-10-18T12:53:35.150Z,3.08
2022-10-18T12:54:39.614Z,2.70
2022-10-18T12:55:45.291Z,6.35
2022-10-18T12:56:47.720Z,3.40
2022-10-18T12:57:52.940Z,3.00
2022-10-18T12:59:14.056Z,5.82
2022-10-18T13:00:31.203Z,5.18
2022-10-18T13:01:56.582Z,6.25
2022-10-18T13:03:14.279Z,3.83
2022-10-18T13:04:28.666Z,2.25
2022-10-18T13:05:54.868Z,1.67
2022-10-18T13:07:00.534Z,2.35
2022-10-18T13:08:31.692Z,1.55
2022-10-18T13:09:39.517Z,1.70
2022-10-18T13:10:41.939Z,2.10
2022-10-18T13:11:44.270Z,2.30
2022-10-18T13:13:38.644Z,2.20
2022-10-18T13:15:12.512Z,2.17
2022-10-18T13:16:30.136Z,2.60
2022-10-18T13:17:58.531Z,2.30
2022-10-18T13:19:15.579Z,2.97
2022-10-18T13:20:36.751Z,2.55
2022-10-18T13:21:45.145Z,2.75
2022-10-18T13:23:08.108Z,2.60
2022-10-18T13:24:15.140Z,2.40
2022-10-18T13:25:17.242Z,2.30
2022-10-18T13:26:28.519Z,2.95
2022-10-18T13:27:38.360Z,3.42
2022-10-18T13:29:13.573Z,2.40
2022-10-18T13:30:41.507Z,2.40
2022-10-18T13:33:29.394Z,2.90
2022-10-18T13:34:39.139Z,2.83
2022-10-18T13:35:54.864Z,2.90
2022-10-18T13:37:24.134Z,2.83
2022-10-18T13:38:29.321Z,2.72
2022-10-18T13:39:33.116Z,2.67
2022-10-18T13:40:35.483Z,2.97
2022-10-18T13:41:46.960Z,2.72
2022-10-18T13:42:49.273Z,2.65
2022-10-18T13:44:10.468Z,3.08
2022-10-18T13:45:30.908Z,3.10
2022-10-18T13:46:33.189Z,3.00
2022-10-18T13:47:38.003Z,3.28
2022-10-18T13:48:52.245Z,3.40
2022-10-18T13:51:53.984Z,2.70
2022-10-18T13:53:09.327Z,3.28
2022-10-18T13:54:38.816Z,5.18
2022-10-18T13:56:06.012Z,3.72
2022-10-18T13:57:32.540Z,2.95
2022-10-18T13:59:06.097Z,2.80
2022-10-18T14:00:30.198Z,3.08
2022-10-18T14:01:37.663Z,2.97
2022-10-18T14:03:08.414Z,3.42
2022-10-18T14:04:52.378Z,2.80
2022-10-18T14:06:12.117Z,2.80
2022-10-18T14:07:18.298Z,2.92
2022-10-18T14:08:36.479Z,3.20
2022-10-18T14:09:55.016Z,2.80
2022-10-18T14:11:22.332Z,3.13
2022-10-18T14:12:39.955Z,2.85
2022-10-18T14:13:54.812Z,3.08
2022-10-18T14:15:08.082Z,3.00
2022-10-18T14:16:30.918Z,2.90
2022-10-18T14:17:56.761Z,3.13
2022-10-18T14:19:11.784Z,3.58
2022-10-18T14:20:20.026Z,3.42
2022-10-18T14:21:31.384Z,3.03
2022-10-18T14:22:45.039Z,2.80
2022-10-18T14:23:47.521Z,3.03
2022-10-18T14:24:54.229Z,3.47
2022-10-18T14:26:07.058Z,2.78
2022-10-18T14:27:16.685Z,3.15
2022-10-18T14:28:27.303Z,3.42
2022-10-18T14:29:39.527Z,3.58
2022-10-18T14:30:53.761Z,3.40
2022-10-18T14:31:56.389Z,3.55
2022-10-18T14:32:59.688Z,3.75
2022-10-18T14:34:03.361Z,3.40
2022-10-18T14:35:33.644Z,3.38
2022-10-18T14:36:47.675Z,2.97
2022-10-18T14:37:52.541Z,3.42
2022-10-18T14:38:54.772Z,3.45
2022-10-18T14:39:57.027Z,2.80
2022-10-18T14:41:07.466Z,3.22
2022-10-18T14:42:20.704Z,3.20
2022-10-18T14:43:22.952Z,3.35
2022-10-18T14:44:30.183Z,3.40
2022-10-18T14:45:32.533Z,3.00
2022-10-18T14:46:41.411Z,3.58
2022-10-18T14:47:45.493Z,3.35
2022-10-18T14:49:02.010Z,2.83
2022-10-18T14:50:20.044Z,2.78
2022-10-18T14:51:22.645Z,2.88
2022-10-18T14:52:35.313Z,2.90
2022-10-18T14:53:40.028Z,3.75
2022-10-18T14:54:42.682Z,3.08
2022-10-18T14:55:55.608Z,3.58
2022-10-18T14:56:58.856Z,3.00
2022-10-18T14:58:02.412Z,3.17
2022-10-18T14:59:21.631Z,3.10
2022-10-18T15:00:30.421Z,3.60
2022-10-18T15:01:32.962Z,4.50
2022-10-18T15:02:38.934Z,3.75
2022-10-18T15:03:41.406Z,3.95
2022-10-18T15:04:45.473Z,4.32
2022-10-18T15:06:01.715Z,3.90
2022-10-18T15:07:06.665Z,4.22